Terminal Aerodrome Forecast
Issued by NWS

Home | Current Version | Previous Version | Text Only | Print | Product List | Glossary On
Versions: 1 2 3 4 5 6 7 8 9 10 11 12 13 14 15 16 17 18 19 20 21 22
000
FTUS43 KDMX 040520
TAFOTM
TAF
KOTM 040520Z 0406/0506 17005KT P6SM VCSH BKN100
     FM040900 18005KT P6SM SCT120
      TEMPO 0410/0413 5SM BR
     FM041700 20008KT P6SM SCT120
     FM050000 17005KT P6SM BKN150=

USA.gov is the U.S. government's official web portal to all federal, state and local government web resources and services.